Terminal Aerodrome Forecast
Issued by NWS

Home | Current Version | Previous Version | Graphics & Text | Print | Product List | Glossary Off
Versions: 1 2 3 4 5 6 7 8 9 10 11 12 13 14 15 16 17 18 19 20 21 22 23 24 25 26 27 28 29 30 31 32

000
FTUS43 KDDC 281130
TAFGCK
TAF
KGCK 281130Z 2812/2912 VRB12G25KT P6SM VCTS BKN070CB
     FM281330 11011KT P6SM SCT050 PROB30 2822/2903 VRB30G45KT 2SM
      TSRA OVC025CB=

USA.gov is the U.S. government's official web portal to all federal, state and local government web resources and services.